createdAt,value
2023-04-17T00:01:43.607Z,34.37
2023-04-17T00:04:11.349Z,32.60
2023-04-17T00:06:40.091Z,36.80
2023-04-17T00:09:07.022Z,29.83
2023-04-17T00:11:33.893Z,32.00
2023-04-17T00:14:00.761Z,33.13
2023-04-17T00:16:27.960Z,26.37
2023-04-17T00:18:55.607Z,32.13
2023-04-17T00:21:22.679Z,32.17
2023-04-17T00:23:49.696Z,37.73
2023-04-17T00:26:16.630Z,30.83
2023-04-17T00:28:43.725Z,39.30
2023-04-17T00:31:10.631Z,39.40
2023-04-17T00:33:37.712Z,33.97
2023-04-17T00:36:05.063Z,38.27
2023-04-17T00:38:31.979Z,34.97
2023-04-17T00:40:58.873Z,38.80
2023-04-17T00:43:25.915Z,31.37
2023-04-17T00:45:53.823Z,35.53
2023-04-17T00:48:24.065Z,34.70
2023-04-17T00:50:51.392Z,45.03
2023-04-17T00:53:19.216Z,42.43
2023-04-17T00:55:48.194Z,36.47
2023-04-17T00:58:15.905Z,33.37
2023-04-17T01:00:42.813Z,31.80
2023-04-17T01:03:10.593Z,34.40
2023-04-17T01:05:38.309Z,34.77
2023-04-17T01:08:05.852Z,44.67
2023-04-17T01:10:32.767Z,36.33
2023-04-17T01:13:07.694Z,39.20
2023-04-17T01:15:36.467Z,31.83
2023-04-17T01:18:04.610Z,36.90
2023-04-17T01:20:32.475Z,34.90
2023-04-17T01:23:00.650Z,37.27
2023-04-17T01:25:28.273Z,46.73
2023-04-17T01:27:56.404Z,34.20
2023-04-17T01:30:23.940Z,40.87
2023-04-17T01:32:56.955Z,48.90
2023-04-17T01:35:23.866Z,35.67
2023-04-17T01:37:50.758Z,37.30
2023-04-17T01:40:17.683Z,38.07
2023-04-17T01:42:45.430Z,37.83
2023-04-17T01:45:12.348Z,37.33
2023-04-17T01:47:40.627Z,42.07
2023-04-17T01:50:09.153Z,35.30
2023-04-17T01:52:36.817Z,45.40
2023-04-17T01:55:04.638Z,35.10
2023-04-17T01:57:33.039Z,36.83
2023-04-17T02:00:00.008Z,38.03
2023-04-17T02:02:27.118Z,35.30
2023-04-17T02:04:54.649Z,33.27
2023-04-17T02:07:21.715Z,37.50
2023-04-17T02:09:48.614Z,38.07
2023-04-17T02:12:16.326Z,33.17
2023-04-17T02:14:43.385Z,31.70
2023-04-17T02:17:10.715Z,36.40
2023-04-17T02:19:37.623Z,32.83
2023-04-17T02:22:04.548Z,36.77
2023-04-17T02:24:31.774Z,41.90
2023-04-17T02:27:00.786Z,35.20
2023-04-17T02:29:27.683Z,32.00
2023-04-17T02:31:55.127Z,47.63
2023-04-17T02:34:22.002Z,35.00
2023-04-17T02:36:51.054Z,38.03
2023-04-17T02:39:19.806Z,36.80
2023-04-17T02:41:46.750Z,34.03
2023-04-17T02:44:13.698Z,36.40
2023-04-17T02:46:40.655Z,37.13
2023-04-17T02:49:09.464Z,34.57
2023-04-17T02:51:36.621Z,39.27
2023-04-17T02:54:03.675Z,32.83
2023-04-17T02:56:30.603Z,34.40
2023-04-17T02:58:57.601Z,35.90
2023-04-17T03:01:24.573Z,41.73
2023-04-17T03:03:52.501Z,37.73
2023-04-17T03:06:19.805Z,36.50
2023-04-17T03:08:46.751Z,36.87
2023-04-17T03:11:13.833Z,35.10
2023-04-17T03:13:40.737Z,39.17
2023-04-17T03:16:08.095Z,40.03
2023-04-17T03:18:43.643Z,35.90
2023-04-17T03:21:10.690Z,32.30
2023-04-17T03:23:37.596Z,36.13
2023-04-17T03:26:06.103Z,35.73
2023-04-17T03:28:33.903Z,31.90
2023-04-17T03:31:02.282Z,36.90
2023-04-17T03:33:31.478Z,35.70
2023-04-17T03:35:58.788Z,34.60
2023-04-17T03:38:26.197Z,36.90
2023-04-17T03:40:54.262Z,30.70
2023-04-17T03:43:23.606Z,37.67
2023-04-17T03:45:51.381Z,39.93
2023-04-17T03:48:18.746Z,34.23
2023-04-17T03:50:46.826Z,44.60
2023-04-17T03:53:13.717Z,38.90
2023-04-17T03:55:41.344Z,48.93
2023-04-17T03:58:11.664Z,36.73
2023-04-17T04:00:38.833Z,37.30
2023-04-17T04:03:10.179Z,34.63
2023-04-17T04:05:41.028Z,35.80
2023-04-17T04:08:09.785Z,35.83
2023-04-17T04:10:55.235Z,44.40
2023-04-17T04:13:31.657Z,34.53
2023-04-17T04:16:01.454Z,39.00
2023-04-17T04:18:30.210Z,35.90
2023-04-17T04:20:57.820Z,42.83
2023-04-17T04:23:30.581Z,35.50
2023-04-17T04:25:58.122Z,43.63
2023-04-17T04:28:33.337Z,41.97
2023-04-17T04:31:02.693Z,39.07
2023-04-17T04:33:35.255Z,42.07
2023-04-17T04:36:03.615Z,35.73
2023-04-17T04:38:33.320Z,45.23
2023-04-17T04:41:10.418Z,34.73
2023-04-17T04:43:38.826Z,37.10
2023-04-17T04:46:08.773Z,44.60
2023-04-17T04:48:42.833Z,49.17
2023-04-17T04:51:10.133Z,40.57
2023-04-17T04:53:38.765Z,43.63
2023-04-17T04:56:06.147Z,43.13
2023-04-17T04:58:34.317Z,38.10
2023-04-17T05:01:02.817Z,43.80
2023-04-17T05:03:37.317Z,39.33
2023-04-17T05:06:06.002Z,44.33
2023-04-17T05:08:46.209Z,39.57
2023-04-17T05:11:15.688Z,33.23
2023-04-17T05:13:43.499Z,39.53
2023-04-17T05:16:18.853Z,39.20
2023-04-17T05:18:47.995Z,39.17
2023-04-17T05:21:18.517Z,44.30
2023-04-17T05:23:49.204Z,44.17
2023-04-17T05:26:16.291Z,40.23
2023-04-17T05:28:45.110Z,40.50
2023-04-17T05:31:15.798Z,44.93
2023-04-17T05:33:43.298Z,43.07
2023-04-17T05:36:10.601Z,42.20
2023-04-17T05:38:40.331Z,54.47
2023-04-17T05:41:09.595Z,39.37
2023-04-17T05:43:37.553Z,45.13
2023-04-17T05:46:04.746Z,46.47
2023-04-17T05:48:32.156Z,47.40
2023-04-17T05:50:59.124Z,60.93
2023-04-17T05:53:26.549Z,44.13
2023-04-17T05:55:57.344Z,39.70
2023-04-17T05:58:24.886Z,42.90
2023-04-17T06:00:56.059Z,40.80
2023-04-17T06:03:24.074Z,43.37
2023-04-17T06:05:58.263Z,43.63
2023-04-17T06:08:26.066Z,46.77
2023-04-17T06:10:53.207Z,54.40
2023-04-17T06:13:20.694Z,42.90
2023-04-17T06:15:51.406Z,43.57
2023-04-17T06:18:18.756Z,49.43
2023-04-17T06:20:46.203Z,47.00
2023-04-17T06:23:13.444Z,40.57
2023-04-17T06:25:40.577Z,46.90
2023-04-17T06:28:07.540Z,46.80
2023-04-17T06:30:35.014Z,44.33
2023-04-17T06:33:02.712Z,49.40
2023-04-17T06:35:30.771Z,46.30
2023-04-17T06:38:04.988Z,48.20
2023-04-17T06:40:33.069Z,50.43
2023-04-17T06:43:00.002Z,46.63
2023-04-17T06:45:28.347Z,45.13
2023-04-17T06:47:56.803Z,41.20
2023-04-17T06:50:23.876Z,51.23
2023-04-17T06:52:50.784Z,43.47
2023-04-17T06:55:17.972Z,49.70
2023-04-17T06:57:44.860Z,42.13
2023-04-17T07:00:12.693Z,42.77
2023-04-17T07:02:39.701Z,45.97
2023-04-17T07:05:07.645Z,43.03
2023-04-17T07:07:35.911Z,48.10
2023-04-17T07:10:04.313Z,44.90
2023-04-17T07:12:31.235Z,46.87
2023-04-17T07:14:58.156Z,44.97
2023-04-17T07:17:25.115Z,41.70
2023-04-17T07:19:52.044Z,42.30
2023-04-17T07:22:18.964Z,53.80
2023-04-17T07:24:45.894Z,42.73
2023-04-17T07:27:12.782Z,48.33
2023-04-17T07:29:39.672Z,42.30
2023-04-17T07:32:06.994Z,37.10
2023-04-17T07:34:34.381Z,38.50
2023-04-17T07:37:01.703Z,38.47
2023-04-17T07:39:31.553Z,37.07
2023-04-17T07:41:58.488Z,37.37
2023-04-17T07:44:25.390Z,35.70
2023-04-17T07:46:52.376Z,44.80
2023-04-17T07:49:19.291Z,37.57
2023-04-17T07:51:46.192Z,47.73
2023-04-17T07:54:13.253Z,40.80
2023-04-17T07:56:40.395Z,33.93
2023-04-17T07:59:07.319Z,35.13
2023-04-17T08:01:34.246Z,44.40
2023-04-17T08:04:02.213Z,43.93
2023-04-17T08:06:29.412Z,37.60
2023-04-17T08:08:56.422Z,40.93
2023-04-17T08:11:23.330Z,39.00
2023-04-17T08:13:50.244Z,39.17
2023-04-17T08:16:17.704Z,34.30
2023-04-17T08:18:44.648Z,34.97
2023-04-17T08:21:11.798Z,37.10
2023-04-17T08:23:38.834Z,44.93
2023-04-17T08:26:05.824Z,41.47
2023-04-17T08:28:32.732Z,34.17
2023-04-17T08:30:59.949Z,33.20
2023-04-17T08:33:27.154Z,39.53
2023-04-17T08:35:54.202Z,37.13
2023-04-17T08:38:21.209Z,32.80
2023-04-17T08:40:51.997Z,34.47
2023-04-17T08:43:21.001Z,34.30
2023-04-17T08:45:53.770Z,37.47
2023-04-17T08:48:22.905Z,34.80
2023-04-17T08:50:52.855Z,61.37
2023-04-17T08:53:20.989Z,39.87
2023-04-17T08:55:48.370Z,34.30
2023-04-17T08:58:15.590Z,28.57
2023-04-17T09:00:44.512Z,32.80
2023-04-17T09:03:14.106Z,33.10
2023-04-17T09:05:45.870Z,32.13
2023-04-17T09:08:20.773Z,30.57
2023-04-17T09:10:55.256Z,31.03
2023-04-17T09:13:29.415Z,25.83
2023-04-17T09:16:13.378Z,25.33
2023-04-17T09:18:43.027Z,28.30
2023-04-17T09:21:10.353Z,24.73
2023-04-17T09:23:55.405Z,30.47
2023-04-17T09:26:26.887Z,24.40
2023-04-17T09:29:11.078Z,29.50
2023-04-17T09:31:41.106Z,25.80
2023-04-17T09:34:12.942Z,28.03
2023-04-17T09:36:42.086Z,25.07
2023-04-17T09:39:24.433Z,31.40
2023-04-17T09:42:03.575Z,30.83
2023-04-17T09:44:31.125Z,26.57
2023-04-17T09:46:58.773Z,23.27
2023-04-17T09:49:39.695Z,20.30
2023-04-17T09:52:07.214Z,24.93
2023-04-17T09:54:37.712Z,25.80
2023-04-17T09:57:08.719Z,30.93
2023-04-17T09:59:40.124Z,28.67
2023-04-17T10:02:12.441Z,20.33
2023-04-17T10:04:44.360Z,27.07
2023-04-17T10:07:13.219Z,26.37
2023-04-17T10:09:41.958Z,31.10
2023-04-17T10:12:18.690Z,25.63
2023-04-17T10:14:48.775Z,24.97
2023-04-17T10:17:37.134Z,28.20
2023-04-17T10:20:19.924Z,19.53
2023-04-17T10:22:57.166Z,26.90
2023-04-17T10:25:28.347Z,18.10
2023-04-17T10:28:00.796Z,20.43
2023-04-17T10:30:54.726Z,26.53
2023-04-17T10:33:25.630Z,17.93
2023-04-17T10:35:53.083Z,17.73
2023-04-17T10:38:35.701Z,16.60
2023-04-17T10:41:05.024Z,17.13
2023-04-17T10:43:32.019Z,17.03
2023-04-17T10:46:11.086Z,16.00
2023-04-17T10:48:50.572Z,16.07
2023-04-17T10:51:23.958Z,27.90
2023-04-17T10:53:55.364Z,16.43
2023-04-17T10:56:37.203Z,14.93
2023-04-17T10:59:13.116Z,13.10
2023-04-17T11:01:57.944Z,15.50
2023-04-17T11:04:30.286Z,19.20
2023-04-17T11:06:57.490Z,10.40
2023-04-17T11:09:27.918Z,10.27
2023-04-17T11:11:55.311Z,10.83
2023-04-17T11:14:23.497Z,10.70
2023-04-17T11:16:51.800Z,11.47
2023-04-17T11:19:22.849Z,10.73
2023-04-17T11:21:55.180Z,10.77
2023-04-17T11:24:32.324Z,10.40
2023-04-17T11:27:01.978Z,10.83
2023-04-17T11:29:29.579Z,13.50
2023-04-17T11:31:58.668Z,10.90
2023-04-17T11:34:26.784Z,10.60
2023-04-17T11:36:59.392Z,11.00
2023-04-17T11:39:30.417Z,12.47
2023-04-17T11:41:57.917Z,10.57
2023-04-17T11:44:25.767Z,10.03
2023-04-17T11:46:54.891Z,8.83
2023-04-17T11:49:30.086Z,10.63
2023-04-17T11:52:01.768Z,11.57
2023-04-17T11:54:39.673Z,12.77
2023-04-17T11:57:12.795Z,13.70
2023-04-17T11:59:45.437Z,18.27
2023-04-17T12:02:12.485Z,13.03
2023-04-17T12:04:40.424Z,11.17
2023-04-17T12:07:21.628Z,10.87
2023-04-17T12:09:56.906Z,11.87
2023-04-17T12:12:23.742Z,12.10
2023-04-17T12:14:50.619Z,12.50
2023-04-17T12:17:17.469Z,12.07
2023-04-17T12:19:45.266Z,14.43
2023-04-17T12:22:12.122Z,13.10
2023-04-17T12:24:38.982Z,13.67
2023-04-17T12:27:05.849Z,10.80
2023-04-17T12:29:43.684Z,11.80
2023-04-17T12:32:11.337Z,8.77
2023-04-17T12:34:38.234Z,10.60
2023-04-17T12:37:05.399Z,9.87
2023-04-17T12:39:32.745Z,8.97
2023-04-17T12:41:59.608Z,10.23
2023-04-17T12:44:26.465Z,10.37
2023-04-17T12:46:53.314Z,9.17
2023-04-17T12:49:20.509Z,11.37
2023-04-17T12:51:47.381Z,10.37
2023-04-17T12:54:14.430Z,11.63
2023-04-17T12:56:41.402Z,14.03
2023-04-17T12:59:08.288Z,10.40
2023-04-17T13:01:35.302Z,13.77
2023-04-17T13:04:02.619Z,13.53
2023-04-17T13:06:29.717Z,14.63
2023-04-17T13:08:56.648Z,21.33
2023-04-17T13:11:23.502Z,11.53
2023-04-17T13:13:50.419Z,17.83
2023-04-17T13:16:17.577Z,14.23
2023-04-17T13:18:44.558Z,14.90
2023-04-17T13:21:11.397Z,10.00
2023-04-17T13:23:38.500Z,13.63
2023-04-17T13:26:05.464Z,13.60
2023-04-17T13:28:32.337Z,12.20
2023-04-17T13:30:59.281Z,12.13
2023-04-17T13:33:26.212Z,14.70
2023-04-17T13:35:53.877Z,15.50
2023-04-17T13:38:20.789Z,11.60
2023-04-17T13:40:47.658Z,13.33
2023-04-17T13:43:14.534Z,13.97
2023-04-17T13:45:41.781Z,16.17
2023-04-17T13:48:08.777Z,20.23
2023-04-17T13:50:35.679Z,14.60
2023-04-17T13:53:02.945Z,12.20
2023-04-17T13:55:29.845Z,14.87
2023-04-17T13:57:57.479Z,14.50
2023-04-17T14:00:24.447Z,13.17
2023-04-17T14:02:51.540Z,14.10
2023-04-17T14:05:18.660Z,16.20
2023-04-17T14:07:45.607Z,14.53
2023-04-17T14:10:12.596Z,13.47
2023-04-17T14:12:39.545Z,15.80
2023-04-17T14:15:07.401Z,11.93
2023-04-17T14:17:37.945Z,13.90
2023-04-17T14:20:06.052Z,20.23
2023-04-17T14:22:32.977Z,17.73
2023-04-17T14:24:59.850Z,14.77
2023-04-17T14:27:26.993Z,17.77
2023-04-17T14:29:53.880Z,17.30
2023-04-17T14:32:20.815Z,19.83
2023-04-17T14:34:47.708Z,19.67
2023-04-17T14:37:14.773Z,21.27
2023-04-17T14:39:41.651Z,25.80
2023-04-17T14:42:08.558Z,20.83
2023-04-17T14:44:35.516Z,15.43
2023-04-17T14:47:02.801Z,21.73
2023-04-17T14:49:30.294Z,17.20
2023-04-17T14:51:57.156Z,27.47
2023-04-17T14:54:24.018Z,22.80
2023-04-17T14:56:50.893Z,21.37
2023-04-17T14:59:17.868Z,15.90
2023-04-17T15:01:44.793Z,19.60
2023-04-17T15:04:12.058Z,20.20
2023-04-17T15:06:39.280Z,20.63
2023-04-17T15:09:06.753Z,18.63
2023-04-17T15:11:33.651Z,18.83
2023-04-17T15:14:00.837Z,18.27
2023-04-17T15:16:27.795Z,17.07
2023-04-17T15:18:54.696Z,16.40
2023-04-17T15:21:21.623Z,16.90
2023-04-17T15:23:48.507Z,16.63
2023-04-17T15:26:15.476Z,16.73
2023-04-17T15:28:42.423Z,15.47
2023-04-17T15:31:09.481Z,15.73
2023-04-17T15:33:37.396Z,23.13
2023-04-17T15:36:04.622Z,20.60
2023-04-17T15:38:31.515Z,16.00
2023-04-17T15:40:58.902Z,18.40
2023-04-17T15:43:25.958Z,15.67
2023-04-17T15:45:53.304Z,18.37
2023-04-17T15:48:20.223Z,16.63
2023-04-17T15:50:47.097Z,16.33
2023-04-17T15:53:13.984Z,15.77
2023-04-17T15:55:41.394Z,14.70
2023-04-17T15:58:08.477Z,15.53
2023-04-17T16:00:35.458Z,13.50
2023-04-17T16:03:02.463Z,13.17
2023-04-17T16:05:30.149Z,16.93
2023-04-17T16:07:57.265Z,20.10
2023-04-17T16:10:24.233Z,14.20
2023-04-17T16:12:51.201Z,18.23
2023-04-17T16:15:18.243Z,13.73
2023-04-17T16:17:45.839Z,15.10
2023-04-17T16:20:13.424Z,18.47
2023-04-17T16:22:40.647Z,22.10
2023-04-17T16:25:08.350Z,17.20
2023-04-17T16:27:37.089Z,18.07
2023-04-17T16:30:05.144Z,19.63
2023-04-17T16:32:32.188Z,15.50
2023-04-17T16:34:59.255Z,19.20
2023-04-17T16:37:26.294Z,22.10
2023-04-17T16:39:53.320Z,19.80
2023-04-17T16:42:20.304Z,21.60
2023-04-17T16:44:47.603Z,21.53
2023-04-17T16:47:14.943Z,21.90
2023-04-17T16:49:42.822Z,19.77
2023-04-17T16:52:09.770Z,21.17
2023-04-17T16:54:36.683Z,22.00
2023-04-17T16:57:03.639Z,22.43
2023-04-17T16:59:30.595Z,18.70
2023-04-17T17:01:57.948Z,25.63
2023-04-17T17:04:25.674Z,22.10
2023-04-17T17:06:52.655Z,26.90
2023-04-17T17:09:20.312Z,25.70
2023-04-17T17:11:47.719Z,29.87
2023-04-17T17:14:16.106Z,26.13
2023-04-17T17:16:43.126Z,23.60
2023-04-17T17:19:10.391Z,33.27
2023-04-17T17:21:38.097Z,24.70
2023-04-17T17:24:05.444Z,23.43
2023-04-17T17:26:32.343Z,30.43
2023-04-17T17:28:59.223Z,25.23
2023-04-17T17:31:26.164Z,28.90
2023-04-17T17:33:54.966Z,30.23
2023-04-17T17:36:21.973Z,32.73
2023-04-17T17:38:55.390Z,29.13
2023-04-17T17:41:24.036Z,26.90
2023-04-17T17:43:51.004Z,27.93
2023-04-17T17:46:19.422Z,29.57
2023-04-17T17:48:46.384Z,31.13
2023-04-17T17:51:13.446Z,29.83
2023-04-17T17:53:41.134Z,27.80
2023-04-17T17:56:08.148Z,30.50
2023-04-17T17:58:35.064Z,36.77
2023-04-17T18:01:02.263Z,30.37
2023-04-17T18:03:29.426Z,27.03
2023-04-17T18:05:56.396Z,30.97
2023-04-17T18:08:23.315Z,28.97
2023-04-17T18:10:50.213Z,42.57
2023-04-17T18:13:17.088Z,27.20
2023-04-17T18:15:44.045Z,23.50
2023-04-17T18:18:10.946Z,34.10
2023-04-17T18:20:39.415Z,31.93
2023-04-17T18:23:06.505Z,27.47
2023-04-17T18:25:35.517Z,30.10
2023-04-17T18:28:03.674Z,25.40
2023-04-17T18:30:30.894Z,23.33
2023-04-17T18:32:57.833Z,31.37
2023-04-17T18:35:24.797Z,23.40
2023-04-17T18:37:52.991Z,30.10
2023-04-17T18:40:19.951Z,27.63
2023-04-17T18:42:46.861Z,30.00
2023-04-17T18:45:15.777Z,25.37
2023-04-17T18:47:42.953Z,25.47
2023-04-17T18:50:11.126Z,23.93
2023-04-17T18:52:42.645Z,28.00
2023-04-17T18:55:11.358Z,26.17
2023-04-17T18:57:38.361Z,24.20
2023-04-17T19:00:06.072Z,24.27
2023-04-17T19:02:33.199Z,24.03
2023-04-17T19:05:00.467Z,28.23
2023-04-17T19:07:29.239Z,32.03
2023-04-17T19:09:56.158Z,25.97
2023-04-17T19:12:23.059Z,30.73
2023-04-17T19:14:50.068Z,26.03
2023-04-17T19:17:16.975Z,23.43
2023-04-17T19:19:43.851Z,27.43
2023-04-17T19:22:10.725Z,26.00
2023-04-17T19:24:37.588Z,25.30
2023-04-17T19:27:04.492Z,26.47
2023-04-17T19:29:31.421Z,24.67
2023-04-17T19:31:58.383Z,23.70
2023-04-17T19:34:25.419Z,25.87
2023-04-17T19:36:52.438Z,29.53
2023-04-17T19:39:19.382Z,24.23
2023-04-17T19:41:50.788Z,26.93
2023-04-17T19:44:18.566Z,27.77
2023-04-17T19:46:45.438Z,25.33
2023-04-17T19:49:12.778Z,24.60
2023-04-17T19:51:39.881Z,27.47
2023-04-17T19:54:06.844Z,24.00
2023-04-17T19:56:33.828Z,34.13
2023-04-17T19:59:04.765Z,30.40
2023-04-17T20:01:31.813Z,27.27
2023-04-17T20:03:59.454Z,20.47
2023-04-17T20:06:26.786Z,25.47
2023-04-17T20:08:55.539Z,29.30
2023-04-17T20:11:23.595Z,23.83
2023-04-17T20:13:51.742Z,25.80
2023-04-17T20:16:18.808Z,26.17
2023-04-17T20:18:45.837Z,23.67
2023-04-17T20:21:13.151Z,21.63
2023-04-17T20:23:40.877Z,22.07
2023-04-17T20:26:08.108Z,29.13
2023-04-17T20:28:35.127Z,24.00
2023-04-17T20:31:03.564Z,21.13
2023-04-17T20:33:30.886Z,24.27
2023-04-17T20:35:57.941Z,23.20
2023-04-17T20:38:25.638Z,22.70
2023-04-17T20:40:52.622Z,28.37
2023-04-17T20:43:19.563Z,27.63
2023-04-17T20:45:48.308Z,28.17
2023-04-17T20:48:15.317Z,27.40
2023-04-17T20:50:42.642Z,24.80
2023-04-17T20:53:09.524Z,26.90
2023-04-17T20:55:39.454Z,25.23
2023-04-17T20:58:06.537Z,22.67
2023-04-17T21:00:34.625Z,22.70
2023-04-17T21:03:02.029Z,28.40
2023-04-17T21:05:29.185Z,30.17
2023-04-17T21:07:57.645Z,21.53
2023-04-17T21:10:24.618Z,23.10
2023-04-17T21:12:51.560Z,22.73
2023-04-17T21:15:18.535Z,23.20
2023-04-17T21:17:47.570Z,26.43
2023-04-17T21:20:14.830Z,25.10
2023-04-17T21:22:41.743Z,22.73
2023-04-17T21:25:09.004Z,23.40
2023-04-17T21:27:36.135Z,25.20
2023-04-17T21:30:03.865Z,27.40
2023-04-17T21:32:30.840Z,24.57
2023-04-17T21:34:57.719Z,28.13
2023-04-17T21:37:24.652Z,29.60
2023-04-17T21:39:51.530Z,33.43
2023-04-17T21:42:18.882Z,36.20
2023-04-17T21:44:45.771Z,27.30
2023-04-17T21:47:14.525Z,25.40
2023-04-17T21:49:41.471Z,29.83
2023-04-17T21:52:08.406Z,39.53
2023-04-17T21:54:35.283Z,29.47
2023-04-17T21:57:02.193Z,27.90
2023-04-17T21:59:29.093Z,27.57
2023-04-17T22:01:56.151Z,27.57
2023-04-17T22:04:23.414Z,36.00
2023-04-17T22:06:52.055Z,30.93
2023-04-17T22:09:19.927Z,37.30
2023-04-17T22:11:47.939Z,25.87
2023-04-17T22:14:16.432Z,30.40
2023-04-17T22:16:43.681Z,30.00
2023-04-17T22:19:10.823Z,34.30
2023-04-17T22:21:37.715Z,31.57
2023-04-17T22:24:04.696Z,28.30
2023-04-17T22:26:31.595Z,30.73
2023-04-17T22:28:58.500Z,29.90
2023-04-17T22:31:25.454Z,30.87
2023-04-17T22:33:52.397Z,34.57
2023-04-17T22:36:19.309Z,31.10
2023-04-17T22:38:46.229Z,35.23
2023-04-17T22:41:13.094Z,35.07
2023-04-17T22:43:39.989Z,32.97
2023-04-17T22:46:06.869Z,29.23
2023-04-17T22:48:34.931Z,30.80
2023-04-17T22:51:02.308Z,27.80
2023-04-17T22:53:29.565Z,31.60
2023-04-17T22:56:04.046Z,29.10
2023-04-17T22:58:33.333Z,28.60
2023-04-17T23:01:00.617Z,33.73
2023-04-17T23:03:27.802Z,28.67
2023-04-17T23:05:54.845Z,28.67
2023-04-17T23:08:23.339Z,31.70
2023-04-17T23:11:00.672Z,32.20
2023-04-17T23:13:28.253Z,29.10
2023-04-17T23:15:55.644Z,33.77
2023-04-17T23:18:22.539Z,29.90
2023-04-17T23:20:49.839Z,32.33
2023-04-17T23:23:18.431Z,33.53
2023-04-17T23:25:45.359Z,32.57
2023-04-17T23:28:12.305Z,29.07
2023-04-17T23:30:39.221Z,34.37
2023-04-17T23:33:06.278Z,33.77
2023-04-17T23:35:33.192Z,28.23
2023-04-17T23:38:00.335Z,30.80
2023-04-17T23:40:28.117Z,32.40
2023-04-17T23:42:55.311Z,26.70
2023-04-17T23:45:22.179Z,28.30
2023-04-17T23:47:49.144Z,30.40
2023-04-17T23:50:16.156Z,26.23
2023-04-17T23:52:43.050Z,29.43
2023-04-17T23:55:09.934Z,28.93
2023-04-17T23:57:37.880Z,24.63
